sensor_id;sensor_type;location;lat;lon;timestamp;temperature;humidity
13389;DHT22;6764;53.250;10.410;2022-12-18T00:01:52;-3.30;99.90
13389;DHT22;6764;53.250;10.410;2022-12-18T00:04:23;-3.30;99.90
13389;DHT22;6764;53.250;10.410;2022-12-18T00:06:49;-3.40;99.90
13389;DHT22;6764;53.250;10.410;2022-12-18T00:09:15;-3.40;99.90
13389;DHT22;6764;53.250;10.410;2022-12-18T00:11:41;-3.40;99.90
13389;DHT22;6764;53.250;10.410;2022-12-18T00:14:06;-3.50;99.90
13389;DHT22;6764;53.250;10.410;2022-12-18T00:16:32;-3.40;99.90
13389;DHT22;6764;53.250;10.410;2022-12-18T00:19:01;-3.40;99.90
13389;DHT22;6764;53.250;10.410;2022-12-18T00:21:28;-3.50;99.90
13389;DHT22;6764;53.250;10.410;2022-12-18T00:23:54;-3.50;99.90
13389;DHT22;6764;53.250;10.410;2022-12-18T00:26:22;-3.50;99.90
13389;DHT22;6764;53.250;10.410;2022-12-18T00:28:48;-3.60;99.90
13389;DHT22;6764;53.250;10.410;2022-12-18T00:31:20;-3.60;99.90
13389;DHT22;6764;53.250;10.410;2022-12-18T00:33:46;-3.70;99.90
13389;DHT22;6764;53.250;10.410;2022-12-18T00:36:24;-3.70;99.90
13389;DHT22;6764;53.250;10.410;2022-12-18T00:38:51;-3.60;99.90
13389;DHT22;6764;53.250;10.410;2022-12-18T00:41:18;-3.60;99.90
13389;DHT22;6764;53.250;10.410;2022-12-18T00:44:05;-3.60;99.90
13389;DHT22;6764;53.250;10.410;2022-12-18T00:46:31;-3.60;99.90
13389;DHT22;6764;53.250;10.410;2022-12-18T00:48:57;-3.60;99.90
13389;DHT22;6764;53.250;10.410;2022-12-18T00:51:23;-3.60;99.90
13389;DHT22;6764;53.250;10.410;2022-12-18T00:53:48;-3.50;99.90
13389;DHT22;6764;53.250;10.410;2022-12-18T00:56:14;-3.50;99.90
13389;DHT22;6764;53.250;10.410;2022-12-18T00:58:40;-3.50;99.90
13389;DHT22;6764;53.250;10.410;2022-12-18T01:01:05;-3.50;99.90
13389;DHT22;6764;53.250;10.410;2022-12-18T01:03:31;-3.60;99.90
13389;DHT22;6764;53.250;10.410;2022-12-18T01:05:57;-3.60;99.90
13389;DHT22;6764;53.250;10.410;2022-12-18T01:08:22;-3.60;99.90
13389;DHT22;6764;53.250;10.410;2022-12-18T01:10:48;-3.70;99.90
13389;DHT22;6764;53.250;10.410;2022-12-18T01:13:14;-3.70;99.90
13389;DHT22;6764;53.250;10.410;2022-12-18T01:15:40;-3.70;99.90
13389;DHT22;6764;53.250;10.410;2022-12-18T01:18:06;-3.60;99.90
13389;DHT22;6764;53.250;10.410;2022-12-18T01:20:32;-3.70;99.90
13389;DHT22;6764;53.250;10.410;2022-12-18T01:22:57;-3.70;99.90
13389;DHT22;6764;53.250;10.410;2022-12-18T01:25:23;-3.70;99.90
13389;DHT22;6764;53.250;10.410;2022-12-18T01:27:49;-3.70;99.90
13389;DHT22;6764;53.250;10.410;2022-12-18T01:30:14;-3.70;99.90
13389;DHT22;6764;53.250;10.410;2022-12-18T01:32:40;-3.80;99.90
13389;DHT22;6764;53.250;10.410;2022-12-18T01:35:06;-3.80;99.90
13389;DHT22;6764;53.250;10.410;2022-12-18T01:37:32;-3.80;99.90
13389;DHT22;6764;53.250;10.410;2022-12-18T01:39:58;-3.80;99.90
13389;DHT22;6764;53.250;10.410;2022-12-18T01:42:23;-3.80;99.90
13389;DHT22;6764;53.250;10.410;2022-12-18T01:47:35;-3.90;99.90
13389;DHT22;6764;53.250;10.410;2022-12-18T01:50:11;-3.90;99.90
13389;DHT22;6764;53.250;10.410;2022-12-18T01:52:48;-3.90;99.90
13389;DHT22;6764;53.250;10.410;2022-12-18T01:55:17;-3.90;99.90
13389;DHT22;6764;53.250;10.410;2022-12-18T01:57:44;-3.90;99.90
13389;DHT22;6764;53.250;10.410;2022-12-18T02:00:15;-4.00;99.90
13389;DHT22;6764;53.250;10.410;2022-12-18T02:02:43;-4.00;99.90
13389;DHT22;6764;53.250;10.410;2022-12-18T02:05:10;-4.00;99.90
13389;DHT22;6764;53.250;10.410;2022-12-18T02:07:46;-4.00;99.90
13389;DHT22;6764;53.250;10.410;2022-12-18T02:10:38;-4.00;99.90
13389;DHT22;6764;53.250;10.410;2022-12-18T02:18:47;-4.00;99.90
13389;DHT22;6764;53.250;10.410;2022-12-18T02:26:36;-4.10;99.90
13389;DHT22;6764;53.250;10.410;2022-12-18T02:29:10;-4.20;99.90
13389;DHT22;6764;53.250;10.410;2022-12-18T02:31:49;-4.30;99.90
13389;DHT22;6764;53.250;10.410;2022-12-18T02:34:18;-4.30;99.90
13389;DHT22;6764;53.250;10.410;2022-12-18T02:36:46;-4.20;99.90
13389;DHT22;6764;53.250;10.410;2022-12-18T02:39:14;-4.20;99.90
13389;DHT22;6764;53.250;10.410;2022-12-18T02:41:41;-4.20;99.90
13389;DHT22;6764;53.250;10.410;2022-12-18T02:44:10;-4.30;99.90
13389;DHT22;6764;53.250;10.410;2022-12-18T02:46:53;-4.30;99.90
13389;DHT22;6764;53.250;10.410;2022-12-18T02:49:57;-4.30;99.90
13389;DHT22;6764;53.250;10.410;2022-12-18T02:52:35;-4.30;99.90
13389;DHT22;6764;53.250;10.410;2022-12-18T02:57:55;-4.30;99.90
13389;DHT22;6764;53.250;10.410;2022-12-18T03:00:28;-4.20;99.90
13389;DHT22;6764;53.250;10.410;2022-12-18T03:03:18;-4.20;99.90
13389;DHT22;6764;53.250;10.410;2022-12-18T03:05:50;-4.20;99.90
13389;DHT22;6764;53.250;10.410;2022-12-18T03:08:26;-4.30;99.90
13389;DHT22;6764;53.250;10.410;2022-12-18T03:11:00;-4.30;99.90
13389;DHT22;6764;53.250;10.410;2022-12-18T03:13:39;-4.30;99.90
13389;DHT22;6764;53.250;10.410;2022-12-18T03:16:10;-4.30;99.90
13389;DHT22;6764;53.250;10.410;2022-12-18T03:18:48;-4.30;99.90
13389;DHT22;6764;53.250;10.410;2022-12-18T03:21:17;-4.30;99.90
13389;DHT22;6764;53.250;10.410;2022-12-18T03:23:48;-4.30;99.90
13389;DHT22;6764;53.250;10.410;2022-12-18T03:26:18;-4.30;99.90
13389;DHT22;6764;53.250;10.410;2022-12-18T03:29:09;-4.30;99.90
13389;DHT22;6764;53.250;10.410;2022-12-18T03:31:40;-4.30;99.90
13389;DHT22;6764;53.250;10.410;2022-12-18T03:34:14;-4.30;99.90
13389;DHT22;6764;53.250;10.410;2022-12-18T03:36:40;-4.30;99.90
13389;DHT22;6764;53.250;10.410;2022-12-18T03:39:06;-4.30;99.90
13389;DHT22;6764;53.250;10.410;2022-12-18T03:44:37;-4.40;99.90
13389;DHT22;6764;53.250;10.410;2022-12-18T03:47:13;-4.40;99.90
13389;DHT22;6764;53.250;10.410;2022-12-18T03:49:48;-4.30;99.90
13389;DHT22;6764;53.250;10.410;2022-12-18T03:52:34;-4.30;99.90
13389;DHT22;6764;53.250;10.410;2022-12-18T03:55:02;-4.20;99.90
13389;DHT22;6764;53.250;10.410;2022-12-18T03:57:30;-4.30;99.90
13389;DHT22;6764;53.250;10.410;2022-12-18T04:00:04;-4.20;99.90
13389;DHT22;6764;53.250;10.410;2022-12-18T04:02:31;-4.20;99.90
13389;DHT22;6764;53.250;10.410;2022-12-18T04:05:01;-4.20;99.90
13389;DHT22;6764;53.250;10.410;2022-12-18T04:07:28;-4.20;99.90
13389;DHT22;6764;53.250;10.410;2022-12-18T04:09:56;-4.20;99.90
13389;DHT22;6764;53.250;10.410;2022-12-18T04:12:26;-4.10;99.90
13389;DHT22;6764;53.250;10.410;2022-12-18T04:14:54;-4.10;99.90
13389;DHT22;6764;53.250;10.410;2022-12-18T04:17:20;-4.20;99.90
13389;DHT22;6764;53.250;10.410;2022-12-18T04:19:46;-4.30;99.90
13389;DHT22;6764;53.250;10.410;2022-12-18T04:22:11;-4.40;99.90
13389;DHT22;6764;53.250;10.410;2022-12-18T04:24:37;-4.40;99.90
13389;DHT22;6764;53.250;10.410;2022-12-18T04:27:03;-4.50;99.90
13389;DHT22;6764;53.250;10.410;2022-12-18T04:29:29;-4.50;99.90
13389;DHT22;6764;53.250;10.410;2022-12-18T04:31:54;-4.50;99.90
13389;DHT22;6764;53.250;10.410;2022-12-18T04:34:20;-4.50;99.90
13389;DHT22;6764;53.250;10.410;2022-12-18T04:36:46;-4.60;99.90
13389;DHT22;6764;53.250;10.410;2022-12-18T04:39:12;-4.60;99.90
13389;DHT22;6764;53.250;10.410;2022-12-18T04:41:37;-4.70;99.90
13389;DHT22;6764;53.250;10.410;2022-12-18T04:44:03;-4.70;99.90
13389;DHT22;6764;53.250;10.410;2022-12-18T04:46:29;-4.60;99.90
13389;DHT22;6764;53.250;10.410;2022-12-18T04:48:55;-4.60;99.90
13389;DHT22;6764;53.250;10.410;2022-12-18T04:51:20;-4.60;99.90
13389;DHT22;6764;53.250;10.410;2022-12-18T04:53:46;-4.60;99.90
13389;DHT22;6764;53.250;10.410;2022-12-18T04:56:13;-4.60;99.90
13389;DHT22;6764;53.250;10.410;2022-12-18T04:58:41;-4.70;99.90
13389;DHT22;6764;53.250;10.410;2022-12-18T05:01:07;-4.70;99.90
13389;DHT22;6764;53.250;10.410;2022-12-18T05:03:34;-4.80;99.90
13389;DHT22;6764;53.250;10.410;2022-12-18T05:06:00;-4.90;99.90
13389;DHT22;6764;53.250;10.410;2022-12-18T05:08:26;-5.00;99.90
13389;DHT22;6764;53.250;10.410;2022-12-18T05:11:01;-5.10;99.90
13389;DHT22;6764;53.250;10.410;2022-12-18T05:13:28;-5.00;99.90
13389;DHT22;6764;53.250;10.410;2022-12-18T05:15:54;-5.00;99.90
13389;DHT22;6764;53.250;10.410;2022-12-18T05:18:21;-5.00;99.90
13389;DHT22;6764;53.250;10.410;2022-12-18T05:20:46;-5.00;99.90
13389;DHT22;6764;53.250;10.410;2022-12-18T05:23:12;-4.90;99.90
13389;DHT22;6764;53.250;10.410;2022-12-18T05:25:38;-4.90;99.90
13389;DHT22;6764;53.250;10.410;2022-12-18T05:28:04;-4.80;99.90
13389;DHT22;6764;53.250;10.410;2022-12-18T05:30:29;-4.80;99.90
13389;DHT22;6764;53.250;10.410;2022-12-18T05:32:55;-4.70;99.90
13389;DHT22;6764;53.250;10.410;2022-12-18T05:35:21;-4.70;99.90
13389;DHT22;6764;53.250;10.410;2022-12-18T05:37:47;-4.70;99.90
13389;DHT22;6764;53.250;10.410;2022-12-18T05:40:13;-4.70;99.90
13389;DHT22;6764;53.250;10.410;2022-12-18T05:42:38;-4.70;99.90
13389;DHT22;6764;53.250;10.410;2022-12-18T05:45:05;-4.70;99.90
13389;DHT22;6764;53.250;10.410;2022-12-18T05:47:31;-4.70;99.90
13389;DHT22;6764;53.250;10.410;2022-12-18T05:49:56;-4.80;99.90
13389;DHT22;6764;53.250;10.410;2022-12-18T05:52:22;-4.80;99.90
13389;DHT22;6764;53.250;10.410;2022-12-18T05:54:48;-4.90;99.90
13389;DHT22;6764;53.250;10.410;2022-12-18T05:57:13;-4.80;99.90
13389;DHT22;6764;53.250;10.410;2022-12-18T05:59:39;-4.90;99.90
13389;DHT22;6764;53.250;10.410;2022-12-18T06:02:04;-4.90;99.90
13389;DHT22;6764;53.250;10.410;2022-12-18T06:04:30;-5.00;99.90
13389;DHT22;6764;53.250;10.410;2022-12-18T06:06:56;-5.10;99.90
13389;DHT22;6764;53.250;10.410;2022-12-18T06:09:22;-5.10;99.90
13389;DHT22;6764;53.250;10.410;2022-12-18T06:11:47;-5.10;99.90
13389;DHT22;6764;53.250;10.410;2022-12-18T06:14:13;-5.10;99.90
13389;DHT22;6764;53.250;10.410;2022-12-18T06:16:39;-5.30;99.90
13389;DHT22;6764;53.250;10.410;2022-12-18T06:19:05;-5.30;99.90
13389;DHT22;6764;53.250;10.410;2022-12-18T06:21:32;-5.30;99.90
13389;DHT22;6764;53.250;10.410;2022-12-18T06:23:58;-5.30;99.90
13389;DHT22;6764;53.250;10.410;2022-12-18T06:26:24;-5.40;99.90
13389;DHT22;6764;53.250;10.410;2022-12-18T06:28:49;-5.50;99.90
13389;DHT22;6764;53.250;10.410;2022-12-18T06:31:15;-5.50;99.90
13389;DHT22;6764;53.250;10.410;2022-12-18T06:33:41;-5.50;99.90
13389;DHT22;6764;53.250;10.410;2022-12-18T06:36:12;-5.50;99.90
13389;DHT22;6764;53.250;10.410;2022-12-18T06:38:40;-5.60;99.90
13389;DHT22;6764;53.250;10.410;2022-12-18T06:41:20;-5.60;99.90
13389;DHT22;6764;53.250;10.410;2022-12-18T06:43:46;-5.60;99.90
13389;DHT22;6764;53.250;10.410;2022-12-18T06:46:12;-5.50;99.90
13389;DHT22;6764;53.250;10.410;2022-12-18T06:48:38;-5.50;99.90
13389;DHT22;6764;53.250;10.410;2022-12-18T06:51:04;-5.50;99.90
13389;DHT22;6764;53.250;10.410;2022-12-18T06:53:29;-5.40;99.90
13389;DHT22;6764;53.250;10.410;2022-12-18T06:56:04;-5.40;99.90
13389;DHT22;6764;53.250;10.410;2022-12-18T06:58:30;-5.40;99.90
13389;DHT22;6764;53.250;10.410;2022-12-18T07:01:00;-5.40;99.90
13389;DHT22;6764;53.250;10.410;2022-12-18T07:03:26;-5.50;99.90
13389;DHT22;6764;53.250;10.410;2022-12-18T07:05:52;-5.50;99.90
13389;DHT22;6764;53.250;10.410;2022-12-18T07:08:17;-5.40;99.90
13389;DHT22;6764;53.250;10.410;2022-12-18T07:10:43;-5.40;99.90
13389;DHT22;6764;53.250;10.410;2022-12-18T07:13:09;-5.40;99.90
13389;DHT22;6764;53.250;10.410;2022-12-18T07:15:35;-5.40;99.90
13389;DHT22;6764;53.250;10.410;2022-12-18T07:18:01;-5.40;99.90
13389;DHT22;6764;53.250;10.410;2022-12-18T07:20:26;-5.50;99.90
13389;DHT22;6764;53.250;10.410;2022-12-18T07:22:52;-5.60;99.90
13389;DHT22;6764;53.250;10.410;2022-12-18T07:25:18;-5.60;99.90
13389;DHT22;6764;53.250;10.410;2022-12-18T07:27:43;-5.70;99.90
13389;DHT22;6764;53.250;10.410;2022-12-18T07:30:09;-5.60;99.90
13389;DHT22;6764;53.250;10.410;2022-12-18T07:32:35;-5.70;99.90
13389;DHT22;6764;53.250;10.410;2022-12-18T07:35:01;-5.70;99.90
13389;DHT22;6764;53.250;10.410;2022-12-18T07:37:26;-5.70;99.90
13389;DHT22;6764;53.250;10.410;2022-12-18T07:39:52;-5.70;99.90
13389;DHT22;6764;53.250;10.410;2022-12-18T07:42:17;-5.70;99.90
13389;DHT22;6764;53.250;10.410;2022-12-18T07:44:59;-5.60;99.90
13389;DHT22;6764;53.250;10.410;2022-12-18T07:47:26;-5.70;99.90
13389;DHT22;6764;53.250;10.410;2022-12-18T07:49:51;-5.70;99.90
13389;DHT22;6764;53.250;10.410;2022-12-18T07:52:17;-5.80;99.90
13389;DHT22;6764;53.250;10.410;2022-12-18T07:54:43;-5.80;99.90
13389;DHT22;6764;53.250;10.410;2022-12-18T07:57:08;-5.80;99.90
13389;DHT22;6764;53.250;10.410;2022-12-18T07:59:34;-5.90;99.90
13389;DHT22;6764;53.250;10.410;2022-12-18T08:02:00;-5.90;99.90
13389;DHT22;6764;53.250;10.410;2022-12-18T08:04:25;-5.90;99.90
13389;DHT22;6764;53.250;10.410;2022-12-18T08:06:51;-6.00;99.90
13389;DHT22;6764;53.250;10.410;2022-12-18T08:09:17;-6.10;99.90
13389;DHT22;6764;53.250;10.410;2022-12-18T08:11:43;-6.10;99.90
13389;DHT22;6764;53.250;10.410;2022-12-18T08:14:09;-6.00;99.90
13389;DHT22;6764;53.250;10.410;2022-12-18T08:16:35;-6.00;99.90
13389;DHT22;6764;53.250;10.410;2022-12-18T08:19:01;-6.00;99.90
13389;DHT22;6764;53.250;10.410;2022-12-18T08:21:29;-6.00;99.90
13389;DHT22;6764;53.250;10.410;2022-12-18T08:23:57;-6.00;99.90
13389;DHT22;6764;53.250;10.410;2022-12-18T08:26:25;-6.00;99.90
13389;DHT22;6764;53.250;10.410;2022-12-18T08:28:52;-6.00;99.90
13389;DHT22;6764;53.250;10.410;2022-12-18T08:31:19;-6.00;99.90
13389;DHT22;6764;53.250;10.410;2022-12-18T08:33:44;-6.00;99.90
13389;DHT22;6764;53.250;10.410;2022-12-18T08:36:10;-5.90;99.90
13389;DHT22;6764;53.250;10.410;2022-12-18T08:38:36;-5.90;99.90
13389;DHT22;6764;53.250;10.410;2022-12-18T08:41:04;-5.70;99.90
13389;DHT22;6764;53.250;10.410;2022-12-18T08:43:30;-5.70;99.90
13389;DHT22;6764;53.250;10.410;2022-12-18T08:46:21;-5.70;99.90
13389;DHT22;6764;53.250;10.410;2022-12-18T08:48:47;-5.70;99.90
13389;DHT22;6764;53.250;10.410;2022-12-18T08:51:19;-5.60;99.90
13389;DHT22;6764;53.250;10.410;2022-12-18T08:53:45;-5.50;99.90
13389;DHT22;6764;53.250;10.410;2022-12-18T08:56:12;-5.50;99.90
13389;DHT22;6764;53.250;10.410;2022-12-18T08:58:37;-5.40;99.90
13389;DHT22;6764;53.250;10.410;2022-12-18T09:01:05;-5.40;99.90
13389;DHT22;6764;53.250;10.410;2022-12-18T09:03:31;-5.30;99.90
13389;DHT22;6764;53.250;10.410;2022-12-18T09:05:57;-5.30;99.90
13389;DHT22;6764;53.250;10.410;2022-12-18T09:08:22;-5.20;99.90
13389;DHT22;6764;53.250;10.410;2022-12-18T09:10:49;-5.10;99.90
13389;DHT22;6764;53.250;10.410;2022-12-18T09:13:16;-5.10;99.90
13389;DHT22;6764;53.250;10.410;2022-12-18T09:15:43;-5.10;99.90
13389;DHT22;6764;53.250;10.410;2022-12-18T09:18:10;-5.10;99.90
13389;DHT22;6764;53.250;10.410;2022-12-18T09:20:37;-5.20;99.90
13389;DHT22;6764;53.250;10.410;2022-12-18T09:23:03;-5.10;99.90
13389;DHT22;6764;53.250;10.410;2022-12-18T09:25:29;-5.20;99.90
13389;DHT22;6764;53.250;10.410;2022-12-18T09:28:30;-5.10;99.90
13389;DHT22;6764;53.250;10.410;2022-12-18T09:30:56;-5.00;99.90
13389;DHT22;6764;53.250;10.410;2022-12-18T09:33:22;-5.10;99.90
13389;DHT22;6764;53.250;10.410;2022-12-18T09:35:47;-5.00;99.90
13389;DHT22;6764;53.250;10.410;2022-12-18T09:38:16;-5.00;99.90
13389;DHT22;6764;53.250;10.410;2022-12-18T09:40:50;-4.90;99.90
13389;DHT22;6764;53.250;10.410;2022-12-18T09:43:29;-4.90;99.90
13389;DHT22;6764;53.250;10.410;2022-12-18T09:46:00;-4.80;99.90
13389;DHT22;6764;53.250;10.410;2022-12-18T09:48:49;-4.80;99.90
13389;DHT22;6764;53.250;10.410;2022-12-18T09:53:47;-4.80;99.90
13389;DHT22;6764;53.250;10.410;2022-12-18T09:56:19;-4.70;99.90
13389;DHT22;6764;53.250;10.410;2022-12-18T09:59:02;-4.70;99.90
13389;DHT22;6764;53.250;10.410;2022-12-18T10:01:29;-4.60;99.90
13389;DHT22;6764;53.250;10.410;2022-12-18T10:03:56;-4.50;99.90
13389;DHT22;6764;53.250;10.410;2022-12-18T10:06:37;-4.50;99.90
13389;DHT22;6764;53.250;10.410;2022-12-18T10:09:37;-4.40;99.90
13389;DHT22;6764;53.250;10.410;2022-12-18T10:12:22;-4.20;99.90
13389;DHT22;6764;53.250;10.410;2022-12-18T10:15:24;-4.10;99.90
13389;DHT22;6764;53.250;10.410;2022-12-18T10:20:34;-4.00;99.90
13389;DHT22;6764;53.250;10.410;2022-12-18T10:23:08;-3.80;99.90
13389;DHT22;6764;53.250;10.410;2022-12-18T10:25:59;-3.70;99.90
13389;DHT22;6764;53.250;10.410;2022-12-18T10:28:27;-3.70;99.90
13389;DHT22;6764;53.250;10.410;2022-12-18T10:30:54;-3.70;99.90
13389;DHT22;6764;53.250;10.410;2022-12-18T10:33:23;-3.70;99.90
13389;DHT22;6764;53.250;10.410;2022-12-18T10:35:52;-3.60;99.90
13389;DHT22;6764;53.250;10.410;2022-12-18T10:43:27;-3.50;99.90
13389;DHT22;6764;53.250;10.410;2022-12-18T10:48:40;-3.30;99.90
13389;DHT22;6764;53.250;10.410;2022-12-18T10:51:07;-3.20;99.90
13389;DHT22;6764;53.250;10.410;2022-12-18T10:53:35;-3.10;99.90
13389;DHT22;6764;53.250;10.410;2022-12-18T10:56:03;-3.00;99.90
13389;DHT22;6764;53.250;10.410;2022-12-18T10:58:35;-3.00;99.90
13389;DHT22;6764;53.250;10.410;2022-12-18T11:01:08;-3.00;99.90
13389;DHT22;6764;53.250;10.410;2022-12-18T11:03:58;-2.90;99.90
13389;DHT22;6764;53.250;10.410;2022-12-18T11:06:25;-2.90;99.90
13389;DHT22;6764;53.250;10.410;2022-12-18T11:09:03;-2.70;99.90
13389;DHT22;6764;53.250;10.410;2022-12-18T11:11:29;-2.60;99.90
13389;DHT22;6764;53.250;10.410;2022-12-18T11:14:02;-2.50;99.90
13389;DHT22;6764;53.250;10.410;2022-12-18T11:16:30;-2.40;99.90
13389;DHT22;6764;53.250;10.410;2022-12-18T11:21:42;-2.50;99.90
13389;DHT22;6764;53.250;10.410;2022-12-18T11:24:20;-2.50;99.90
13389;DHT22;6764;53.250;10.410;2022-12-18T11:26:46;-2.50;99.90
13389;DHT22;6764;53.250;10.410;2022-12-18T11:29:18;-2.60;99.90
13389;DHT22;6764;53.250;10.410;2022-12-18T11:31:48;-2.50;99.90
13389;DHT22;6764;53.250;10.410;2022-12-18T11:34:26;-2.40;99.90
13389;DHT22;6764;53.250;10.410;2022-12-18T11:36:53;-2.30;99.90
13389;DHT22;6764;53.250;10.410;2022-12-18T11:39:26;-2.30;99.90
13389;DHT22;6764;53.250;10.410;2022-12-18T11:42:09;-2.20;99.90
13389;DHT22;6764;53.250;10.410;2022-12-18T11:44:57;-2.10;99.90
13389;DHT22;6764;53.250;10.410;2022-12-18T11:50:24;-2.00;99.90
13389;DHT22;6764;53.250;10.410;2022-12-18T11:52:50;-1.90;99.90
13389;DHT22;6764;53.250;10.410;2022-12-18T11:58:12;-1.80;99.90
13389;DHT22;6764;53.250;10.410;2022-12-18T12:11:42;-1.30;99.90
13389;DHT22;6764;53.250;10.410;2022-12-18T12:14:35;-1.30;99.90
13389;DHT22;6764;53.250;10.410;2022-12-18T12:17:25;-1.30;99.90
13389;DHT22;6764;53.250;10.410;2022-12-18T12:25:52;-1.20;99.90
13389;DHT22;6764;53.250;10.410;2022-12-18T12:31:24;-1.20;99.90
13389;DHT22;6764;53.250;10.410;2022-12-18T12:33:58;-1.20;99.90
13389;DHT22;6764;53.250;10.410;2022-12-18T12:39:11;-1.10;99.90
13389;DHT22;6764;53.250;10.410;2022-12-18T12:41:39;-1.00;99.90
13389;DHT22;6764;53.250;10.410;2022-12-18T12:44:47;-1.00;99.90
13389;DHT22;6764;53.250;10.410;2022-12-18T12:47:32;-0.90;99.90
13389;DHT22;6764;53.250;10.410;2022-12-18T12:50:00;-0.90;99.90
13389;DHT22;6764;53.250;10.410;2022-12-18T12:52:32;-0.90;99.90
13389;DHT22;6764;53.250;10.410;2022-12-18T12:55:00;-1.00;99.90
13389;DHT22;6764;53.250;10.410;2022-12-18T12:57:37;-1.00;99.90
13389;DHT22;6764;53.250;10.410;2022-12-18T13:00:15;-1.10;99.90
13389;DHT22;6764;53.250;10.410;2022-12-18T13:08:01;-0.90;99.90
13389;DHT22;6764;53.250;10.410;2022-12-18T13:15:49;-0.90;99.90
13389;DHT22;6764;53.250;10.410;2022-12-18T13:18:28;-0.90;99.90
13389;DHT22;6764;53.250;10.410;2022-12-18T13:23:31;-1.00;99.90
13389;DHT22;6764;53.250;10.410;2022-12-18T13:31:14;-1.00;99.90
13389;DHT22;6764;53.250;10.410;2022-12-18T13:33:42;-1.20;99.90
13389;DHT22;6764;53.250;10.410;2022-12-18T13:36:30;-1.10;99.90
13389;DHT22;6764;53.250;10.410;2022-12-18T13:41:47;-1.20;99.90
13389;DHT22;6764;53.250;10.410;2022-12-18T13:44:33;-1.20;99.90
13389;DHT22;6764;53.250;10.410;2022-12-18T13:47:00;-1.30;99.90
13389;DHT22;6764;53.250;10.410;2022-12-18T13:49:40;-1.30;99.90
13389;DHT22;6764;53.250;10.410;2022-12-18T13:52:18;-1.40;99.90
13389;DHT22;6764;53.250;10.410;2022-12-18T13:54:49;-1.40;99.90
13389;DHT22;6764;53.250;10.410;2022-12-18T13:57:34;-1.50;99.90
13389;DHT22;6764;53.250;10.410;2022-12-18T14:00:32;-1.40;99.90
13389;DHT22;6764;53.250;10.410;2022-12-18T14:02:58;-1.40;99.90
13389;DHT22;6764;53.250;10.410;2022-12-18T14:05:32;-1.40;99.90
13389;DHT22;6764;53.250;10.410;2022-12-18T14:08:03;-1.40;99.90
13389;DHT22;6764;53.250;10.410;2022-12-18T14:10:30;-1.40;99.90
13389;DHT22;6764;53.250;10.410;2022-12-18T14:12:57;-1.40;99.90
13389;DHT22;6764;53.250;10.410;2022-12-18T14:15:30;-1.40;99.90
13389;DHT22;6764;53.250;10.410;2022-12-18T14:18:23;-1.50;99.90
13389;DHT22;6764;53.250;10.410;2022-12-18T14:20:56;-1.50;99.90
13389;DHT22;6764;53.250;10.410;2022-12-18T14:23:40;-1.50;99.90
13389;DHT22;6764;53.250;10.410;2022-12-18T14:26:29;-1.50;99.90
13389;DHT22;6764;53.250;10.410;2022-12-18T14:28:57;-1.50;99.90
13389;DHT22;6764;53.250;10.410;2022-12-18T14:31:27;-1.40;99.90
13389;DHT22;6764;53.250;10.410;2022-12-18T14:33:53;-1.40;99.90
13389;DHT22;6764;53.250;10.410;2022-12-18T14:36:27;-1.40;99.90
13389;DHT22;6764;53.250;10.410;2022-12-18T14:38:57;-1.50;99.90
13389;DHT22;6764;53.250;10.410;2022-12-18T14:41:24;-1.50;99.90
13389;DHT22;6764;53.250;10.410;2022-12-18T14:43:52;-1.50;99.90
13389;DHT22;6764;53.250;10.410;2022-12-18T14:46:37;-1.50;99.90
13389;DHT22;6764;53.250;10.410;2022-12-18T14:49:17;-1.60;99.90
13389;DHT22;6764;53.250;10.410;2022-12-18T14:51:53;-1.60;99.90
13389;DHT22;6764;53.250;10.410;2022-12-18T14:54:20;-1.60;99.90
13389;DHT22;6764;53.250;10.410;2022-12-18T14:56:51;-1.60;99.90
13389;DHT22;6764;53.250;10.410;2022-12-18T14:59:35;-1.60;99.90
13389;DHT22;6764;53.250;10.410;2022-12-18T15:02:21;-1.60;99.90
13389;DHT22;6764;53.250;10.410;2022-12-18T15:04:59;-1.60;99.90
13389;DHT22;6764;53.250;10.410;2022-12-18T15:07:25;-1.70;99.90
13389;DHT22;6764;53.250;10.410;2022-12-18T15:12:36;-1.60;99.90
13389;DHT22;6764;53.250;10.410;2022-12-18T15:15:03;-1.60;99.90
13389;DHT22;6764;53.250;10.410;2022-12-18T15:17:30;-1.50;99.90
13389;DHT22;6764;53.250;10.410;2022-12-18T15:20:02;-1.60;99.90
13389;DHT22;6764;53.250;10.410;2022-12-18T15:22:30;-1.60;99.90
13389;DHT22;6764;53.250;10.410;2022-12-18T15:24:58;-1.60;99.90
13389;DHT22;6764;53.250;10.410;2022-12-18T15:27:35;-1.70;99.90
13389;DHT22;6764;53.250;10.410;2022-12-18T15:32:35;-1.80;99.90
13389;DHT22;6764;53.250;10.410;2022-12-18T15:37:39;-1.80;99.90
13389;DHT22;6764;53.250;10.410;2022-12-18T15:40:06;-1.80;99.90
13389;DHT22;6764;53.250;10.410;2022-12-18T15:42:33;-1.80;99.90
13389;DHT22;6764;53.250;10.410;2022-12-18T15:45:17;-1.90;99.90
13389;DHT22;6764;53.250;10.410;2022-12-18T15:47:42;-2.00;99.90
13389;DHT22;6764;53.250;10.410;2022-12-18T15:50:09;-2.10;99.90
13389;DHT22;6764;53.250;10.410;2022-12-18T15:52:40;-2.00;99.90
13389;DHT22;6764;53.250;10.410;2022-12-18T15:55:15;-2.00;99.90
13389;DHT22;6764;53.250;10.410;2022-12-18T15:58:00;-2.00;99.90
13389;DHT22;6764;53.250;10.410;2022-12-18T16:00:25;-2.00;99.90
13389;DHT22;6764;53.250;10.410;2022-12-18T16:02:51;-2.10;99.90
13389;DHT22;6764;53.250;10.410;2022-12-18T16:05:19;-2.10;99.90
13389;DHT22;6764;53.250;10.410;2022-12-18T16:07:45;-2.10;99.90
13389;DHT22;6764;53.250;10.410;2022-12-18T16:10:11;-2.00;99.90
13389;DHT22;6764;53.250;10.410;2022-12-18T16:12:37;-2.00;99.90
13389;DHT22;6764;53.250;10.410;2022-12-18T16:15:04;-2.00;99.90
13389;DHT22;6764;53.250;10.410;2022-12-18T16:17:30;-2.00;99.90
13389;DHT22;6764;53.250;10.410;2022-12-18T16:19:56;-1.90;99.90
13389;DHT22;6764;53.250;10.410;2022-12-18T16:22:27;-1.90;99.90
13389;DHT22;6764;53.250;10.410;2022-12-18T16:24:54;-1.80;99.90
13389;DHT22;6764;53.250;10.410;2022-12-18T16:27:21;-1.80;99.90
13389;DHT22;6764;53.250;10.410;2022-12-18T16:29:47;-1.80;99.90
13389;DHT22;6764;53.250;10.410;2022-12-18T16:32:22;-1.80;99.90
13389;DHT22;6764;53.250;10.410;2022-12-18T16:34:48;-1.80;99.90
13389;DHT22;6764;53.250;10.410;2022-12-18T16:37:14;-1.90;99.90
13389;DHT22;6764;53.250;10.410;2022-12-18T16:39:40;-1.90;99.90
13389;DHT22;6764;53.250;10.410;2022-12-18T16:42:11;-1.90;99.90
13389;DHT22;6764;53.250;10.410;2022-12-18T16:44:42;-1.80;99.90
13389;DHT22;6764;53.250;10.410;2022-12-18T16:47:09;-1.80;99.90
13389;DHT22;6764;53.250;10.410;2022-12-18T16:49:34;-1.70;99.90
13389;DHT22;6764;53.250;10.410;2022-12-18T16:52:01;-1.60;99.90
13389;DHT22;6764;53.250;10.410;2022-12-18T16:54:27;-1.60;99.90
13389;DHT22;6764;53.250;10.410;2022-12-18T16:56:55;-1.60;99.90
13389;DHT22;6764;53.250;10.410;2022-12-18T16:59:21;-1.60;99.90
13389;DHT22;6764;53.250;10.410;2022-12-18T17:01:46;-1.60;99.90
13389;DHT22;6764;53.250;10.410;2022-12-18T17:04:12;-1.60;99.90
13389;DHT22;6764;53.250;10.410;2022-12-18T17:06:41;-1.60;99.90
13389;DHT22;6764;53.250;10.410;2022-12-18T17:09:10;-1.60;99.90
13389;DHT22;6764;53.250;10.410;2022-12-18T17:11:36;-1.50;99.90
13389;DHT22;6764;53.250;10.410;2022-12-18T17:14:16;-1.50;99.90
13389;DHT22;6764;53.250;10.410;2022-12-18T17:16:42;-1.40;99.90
13389;DHT22;6764;53.250;10.410;2022-12-18T17:19:09;-1.40;99.90
13389;DHT22;6764;53.250;10.410;2022-12-18T17:21:35;-1.40;99.90